sensor_id;sensor_type;location;lat;lon;timestamp;temperature;humidity
64689;DHT22;62504;46.070;14.492;2023-10-08T00:02:45;17.10;99.90
64689;DHT22;62504;46.070;14.492;2023-10-08T00:05:10;17.10;99.90
64689;DHT22;62504;46.070;14.492;2023-10-08T00:07:36;17.00;99.90
64689;DHT22;62504;46.070;14.492;2023-10-08T00:10:02;17.00;99.90
64689;DHT22;62504;46.070;14.492;2023-10-08T00:12:28;17.00;99.90
64689;DHT22;62504;46.070;14.492;2023-10-08T00:14:54;16.90;99.90
64689;DHT22;62504;46.070;14.492;2023-10-08T00:17:20;16.90;99.90
64689;DHT22;62504;46.070;14.492;2023-10-08T00:19:46;16.90;99.90
64689;DHT22;62504;46.070;14.492;2023-10-08T00:22:18;16.90;99.90
64689;DHT22;62504;46.070;14.492;2023-10-08T00:24:44;16.90;99.90
64689;DHT22;62504;46.070;14.492;2023-10-08T00:27:15;16.90;99.90
64689;DHT22;62504;46.070;14.492;2023-10-08T00:29:43;16.90;99.90
64689;DHT22;62504;46.070;14.492;2023-10-08T00:32:09;16.90;99.90
64689;DHT22;62504;46.070;14.492;2023-10-08T00:34:40;16.90;99.90
64689;DHT22;62504;46.070;14.492;2023-10-08T00:37:10;16.90;99.90
64689;DHT22;62504;46.070;14.492;2023-10-08T00:39:37;16.80;99.90
64689;DHT22;62504;46.070;14.492;2023-10-08T00:42:05;16.70;99.90
64689;DHT22;62504;46.070;14.492;2023-10-08T00:44:36;16.70;99.90
64689;DHT22;62504;46.070;14.492;2023-10-08T00:47:14;16.70;99.90
64689;DHT22;62504;46.070;14.492;2023-10-08T00:49:42;16.60;99.90
64689;DHT22;62504;46.070;14.492;2023-10-08T00:52:12;16.60;99.90
64689;DHT22;62504;46.070;14.492;2023-10-08T00:54:40;16.60;99.90
64689;DHT22;62504;46.070;14.492;2023-10-08T00:57:29;16.60;99.90
64689;DHT22;62504;46.070;14.492;2023-10-08T00:59:56;16.50;99.90
64689;DHT22;62504;46.070;14.492;2023-10-08T01:02:28;16.50;99.90
64689;DHT22;62504;46.070;14.492;2023-10-08T01:05:20;16.50;99.90
64689;DHT22;62504;46.070;14.492;2023-10-08T01:07:54;16.50;99.90
64689;DHT22;62504;46.070;14.492;2023-10-08T01:10:21;16.40;99.90
64689;DHT22;62504;46.070;14.492;2023-10-08T01:12:50;16.40;99.90
64689;DHT22;62504;46.070;14.492;2023-10-08T01:15:29;16.50;99.90
64689;DHT22;62504;46.070;14.492;2023-10-08T01:17:56;16.50;99.90
64689;DHT22;62504;46.070;14.492;2023-10-08T01:20:30;16.40;99.90
64689;DHT22;62504;46.070;14.492;2023-10-08T01:23:09;16.40;99.90
64689;DHT22;62504;46.070;14.492;2023-10-08T01:25:55;16.40;99.90
64689;DHT22;62504;46.070;14.492;2023-10-08T01:28:35;16.40;99.90
64689;DHT22;62504;46.070;14.492;2023-10-08T01:31:01;16.40;99.90
64689;DHT22;62504;46.070;14.492;2023-10-08T01:33:29;16.40;99.90
64689;DHT22;62504;46.070;14.492;2023-10-08T01:35:57;16.40;99.90
64689;DHT22;62504;46.070;14.492;2023-10-08T01:38:28;16.40;99.90
64689;DHT22;62504;46.070;14.492;2023-10-08T01:40:54;16.40;99.90
64689;DHT22;62504;46.070;14.492;2023-10-08T01:43:22;16.40;99.90
64689;DHT22;62504;46.070;14.492;2023-10-08T01:45:48;16.40;99.90
64689;DHT22;62504;46.070;14.492;2023-10-08T01:48:15;16.50;99.90
64689;DHT22;62504;46.070;14.492;2023-10-08T01:51:01;16.40;99.90
64689;DHT22;62504;46.070;14.492;2023-10-08T01:53:30;16.40;99.90
64689;DHT22;62504;46.070;14.492;2023-10-08T01:55:57;16.40;99.90
64689;DHT22;62504;46.070;14.492;2023-10-08T01:58:23;16.30;99.90
64689;DHT22;62504;46.070;14.492;2023-10-08T02:00:49;16.30;99.90
64689;DHT22;62504;46.070;14.492;2023-10-08T02:03:18;16.30;99.90
64689;DHT22;62504;46.070;14.492;2023-10-08T02:05:45;16.30;99.90
64689;DHT22;62504;46.070;14.492;2023-10-08T02:08:12;16.30;99.90
64689;DHT22;62504;46.070;14.492;2023-10-08T02:10:42;16.30;99.90
64689;DHT22;62504;46.070;14.492;2023-10-08T02:13:13;16.30;99.90
64689;DHT22;62504;46.070;14.492;2023-10-08T02:15:48;16.30;99.90
64689;DHT22;62504;46.070;14.492;2023-10-08T02:18:17;16.30;99.90
64689;DHT22;62504;46.070;14.492;2023-10-08T02:20:43;16.30;99.90
64689;DHT22;62504;46.070;14.492;2023-10-08T02:23:09;16.20;99.90
64689;DHT22;62504;46.070;14.492;2023-10-08T02:25:37;16.20;99.90
64689;DHT22;62504;46.070;14.492;2023-10-08T02:28:06;16.20;99.90
64689;DHT22;62504;46.070;14.492;2023-10-08T02:30:36;16.10;99.90
64689;DHT22;62504;46.070;14.492;2023-10-08T02:33:05;16.10;99.90
64689;DHT22;62504;46.070;14.492;2023-10-08T02:35:42;16.00;99.90
64689;DHT22;62504;46.070;14.492;2023-10-08T02:38:12;16.00;99.90
64689;DHT22;62504;46.070;14.492;2023-10-08T02:40:39;16.00;99.90
64689;DHT22;62504;46.070;14.492;2023-10-08T02:43:13;16.00;99.90
64689;DHT22;62504;46.070;14.492;2023-10-08T02:45:41;16.10;99.90
64689;DHT22;62504;46.070;14.492;2023-10-08T02:48:07;16.00;99.90
64689;DHT22;62504;46.070;14.492;2023-10-08T02:50:42;16.10;99.90
64689;DHT22;62504;46.070;14.492;2023-10-08T02:53:11;16.00;99.90
64689;DHT22;62504;46.070;14.492;2023-10-08T02:55:38;16.00;99.90
64689;DHT22;62504;46.070;14.492;2023-10-08T02:58:12;15.90;99.90
64689;DHT22;62504;46.070;14.492;2023-10-08T03:00:46;15.90;99.90
64689;DHT22;62504;46.070;14.492;2023-10-08T03:03:18;15.80;99.90
64689;DHT22;62504;46.070;14.492;2023-10-08T03:05:52;15.90;99.90
64689;DHT22;62504;46.070;14.492;2023-10-08T03:08:19;15.90;99.90
64689;DHT22;62504;46.070;14.492;2023-10-08T03:10:50;15.80;99.90
64689;DHT22;62504;46.070;14.492;2023-10-08T03:13:16;15.90;99.90
64689;DHT22;62504;46.070;14.492;2023-10-08T03:15:43;15.90;99.90
64689;DHT22;62504;46.070;14.492;2023-10-08T03:18:28;15.80;99.90
64689;DHT22;62504;46.070;14.492;2023-10-08T03:21:07;15.90;99.90
64689;DHT22;62504;46.070;14.492;2023-10-08T03:24:08;15.90;99.90
64689;DHT22;62504;46.070;14.492;2023-10-08T03:26:57;15.80;99.90
64689;DHT22;62504;46.070;14.492;2023-10-08T03:29:35;15.80;99.90
64689;DHT22;62504;46.070;14.492;2023-10-08T03:32:11;15.80;99.90
64689;DHT22;62504;46.070;14.492;2023-10-08T03:34:47;15.80;99.90
64689;DHT22;62504;46.070;14.492;2023-10-08T03:37:20;15.80;99.90
64689;DHT22;62504;46.070;14.492;2023-10-08T03:39:50;15.80;99.90
64689;DHT22;62504;46.070;14.492;2023-10-08T03:42:47;15.80;99.90
64689;DHT22;62504;46.070;14.492;2023-10-08T03:45:14;15.80;99.90
64689;DHT22;62504;46.070;14.492;2023-10-08T03:47:51;15.70;99.90
64689;DHT22;62504;46.070;14.492;2023-10-08T03:50:32;15.60;99.90
64689;DHT22;62504;46.070;14.492;2023-10-08T03:53:07;15.60;99.90
64689;DHT22;62504;46.070;14.492;2023-10-08T03:55:38;15.60;99.90
64689;DHT22;62504;46.070;14.492;2023-10-08T03:58:07;15.60;99.90
64689;DHT22;62504;46.070;14.492;2023-10-08T04:00:36;15.60;99.90
64689;DHT22;62504;46.070;14.492;2023-10-08T04:03:08;15.60;99.90
64689;DHT22;62504;46.070;14.492;2023-10-08T04:05:36;15.60;99.90
64689;DHT22;62504;46.070;14.492;2023-10-08T04:08:31;15.60;99.90
64689;DHT22;62504;46.070;14.492;2023-10-08T04:11:11;15.60;99.90
64689;DHT22;62504;46.070;14.492;2023-10-08T04:14:09;15.60;99.90
64689;DHT22;62504;46.070;14.492;2023-10-08T04:16:35;15.60;99.90
64689;DHT22;62504;46.070;14.492;2023-10-08T04:19:03;15.60;99.90
64689;DHT22;62504;46.070;14.492;2023-10-08T04:21:29;15.60;99.90
64689;DHT22;62504;46.070;14.492;2023-10-08T04:23:55;15.60;99.90
64689;DHT22;62504;46.070;14.492;2023-10-08T04:26:23;15.60;99.90
64689;DHT22;62504;46.070;14.492;2023-10-08T04:28:53;15.50;99.90
64689;DHT22;62504;46.070;14.492;2023-10-08T04:31:31;15.50;99.90
64689;DHT22;62504;46.070;14.492;2023-10-08T04:34:04;15.50;99.90
64689;DHT22;62504;46.070;14.492;2023-10-08T04:36:45;15.30;99.90
64689;DHT22;62504;46.070;14.492;2023-10-08T04:39:14;15.30;99.90
64689;DHT22;62504;46.070;14.492;2023-10-08T04:41:42;15.40;99.90
64689;DHT22;62504;46.070;14.492;2023-10-08T04:44:09;15.40;99.90
64689;DHT22;62504;46.070;14.492;2023-10-08T04:46:45;15.40;99.90
64689;DHT22;62504;46.070;14.492;2023-10-08T04:49:10;15.40;99.90
64689;DHT22;62504;46.070;14.492;2023-10-08T04:51:52;15.40;99.90
64689;DHT22;62504;46.070;14.492;2023-10-08T04:54:20;15.40;99.90
64689;DHT22;62504;46.070;14.492;2023-10-08T04:56:47;15.40;99.90
64689;DHT22;62504;46.070;14.492;2023-10-08T04:59:14;15.30;99.90
64689;DHT22;62504;46.070;14.492;2023-10-08T05:01:40;15.30;99.90
64689;DHT22;62504;46.070;14.492;2023-10-08T05:04:34;15.30;99.90
64689;DHT22;62504;46.070;14.492;2023-10-08T05:07:12;15.30;99.90
64689;DHT22;62504;46.070;14.492;2023-10-08T05:10:06;15.30;99.90
64689;DHT22;62504;46.070;14.492;2023-10-08T05:12:32;15.20;99.90
64689;DHT22;62504;46.070;14.492;2023-10-08T05:14:58;15.20;99.90
64689;DHT22;62504;46.070;14.492;2023-10-08T05:17:44;15.20;99.90
64689;DHT22;62504;46.070;14.492;2023-10-08T05:20:20;15.30;99.90
64689;DHT22;62504;46.070;14.492;2023-10-08T05:23:13;15.10;99.90
64689;DHT22;62504;46.070;14.492;2023-10-08T05:26:03;15.10;99.90
64689;DHT22;62504;46.070;14.492;2023-10-08T05:28:39;15.10;99.90
64689;DHT22;62504;46.070;14.492;2023-10-08T05:31:23;15.20;99.90
64689;DHT22;62504;46.070;14.492;2023-10-08T05:34:24;15.20;99.90
64689;DHT22;62504;46.070;14.492;2023-10-08T05:36:59;15.20;99.90
64689;DHT22;62504;46.070;14.492;2023-10-08T05:39:24;15.30;99.90
64689;DHT22;62504;46.070;14.492;2023-10-08T05:41:53;15.20;99.90
64689;DHT22;62504;46.070;14.492;2023-10-08T05:44:37;15.20;99.90
64689;DHT22;62504;46.070;14.492;2023-10-08T05:47:06;15.20;99.90
64689;DHT22;62504;46.070;14.492;2023-10-08T05:49:50;15.20;99.90
64689;DHT22;62504;46.070;14.492;2023-10-08T05:52:46;15.20;99.90
64689;DHT22;62504;46.070;14.492;2023-10-08T05:55:25;15.20;99.90
64689;DHT22;62504;46.070;14.492;2023-10-08T05:57:58;15.30;99.90
64689;DHT22;62504;46.070;14.492;2023-10-08T06:00:41;15.30;99.90
64689;DHT22;62504;46.070;14.492;2023-10-08T06:03:16;15.30;99.90
64689;DHT22;62504;46.070;14.492;2023-10-08T06:06:01;15.30;99.90
64689;DHT22;62504;46.070;14.492;2023-10-08T06:08:40;15.40;99.90
64689;DHT22;62504;46.070;14.492;2023-10-08T06:11:25;15.50;99.90
64689;DHT22;62504;46.070;14.492;2023-10-08T06:14:23;15.50;99.90
64689;DHT22;62504;46.070;14.492;2023-10-08T06:17:14;15.60;99.90
64689;DHT22;62504;46.070;14.492;2023-10-08T06:20:00;15.70;99.90
64689;DHT22;62504;46.070;14.492;2023-10-08T06:22:42;15.70;99.90
64689;DHT22;62504;46.070;14.492;2023-10-08T06:25:08;15.90;99.90
64689;DHT22;62504;46.070;14.492;2023-10-08T06:27:43;16.00;99.90
64689;DHT22;62504;46.070;14.492;2023-10-08T06:30:13;16.00;99.90
64689;DHT22;62504;46.070;14.492;2023-10-08T06:32:45;16.20;99.90
64689;DHT22;62504;46.070;14.492;2023-10-08T06:35:11;16.40;99.90
64689;DHT22;62504;46.070;14.492;2023-10-08T06:37:44;16.50;99.90
64689;DHT22;62504;46.070;14.492;2023-10-08T06:40:11;16.70;99.90
64689;DHT22;62504;46.070;14.492;2023-10-08T06:42:57;16.80;99.90
64689;DHT22;62504;46.070;14.492;2023-10-08T06:45:29;17.00;99.90
64689;DHT22;62504;46.070;14.492;2023-10-08T06:47:56;17.10;99.90
64689;DHT22;62504;46.070;14.492;2023-10-08T06:50:22;17.20;99.90
64689;DHT22;62504;46.070;14.492;2023-10-08T06:52:48;17.30;99.90
64689;DHT22;62504;46.070;14.492;2023-10-08T06:55:14;17.40;99.90
64689;DHT22;62504;46.070;14.492;2023-10-08T06:57:43;17.50;99.90
64689;DHT22;62504;46.070;14.492;2023-10-08T07:00:09;17.40;99.90
64689;DHT22;62504;46.070;14.492;2023-10-08T07:02:57;17.50;99.90
64689;DHT22;62504;46.070;14.492;2023-10-08T07:05:23;17.60;99.90
64689;DHT22;62504;46.070;14.492;2023-10-08T07:07:49;17.60;99.90
64689;DHT22;62504;46.070;14.492;2023-10-08T07:10:18;17.60;99.90
64689;DHT22;62504;46.070;14.492;2023-10-08T07:12:45;17.60;99.90
64689;DHT22;62504;46.070;14.492;2023-10-08T07:15:12;17.60;99.90
64689;DHT22;62504;46.070;14.492;2023-10-08T07:17:39;17.50;99.90
64689;DHT22;62504;46.070;14.492;2023-10-08T07:20:08;17.50;99.90
64689;DHT22;62504;46.070;14.492;2023-10-08T07:22:39;17.50;99.90
64689;DHT22;62504;46.070;14.492;2023-10-08T07:25:05;17.50;99.90
64689;DHT22;62504;46.070;14.492;2023-10-08T07:27:34;17.60;99.90
64689;DHT22;62504;46.070;14.492;2023-10-08T07:30:04;17.70;99.90
64689;DHT22;62504;46.070;14.492;2023-10-08T07:32:39;17.80;99.90
64689;DHT22;62504;46.070;14.492;2023-10-08T07:35:05;18.00;99.90
64689;DHT22;62504;46.070;14.492;2023-10-08T07:37:48;18.10;99.90
64689;DHT22;62504;46.070;14.492;2023-10-08T07:40:14;18.10;99.90
64689;DHT22;62504;46.070;14.492;2023-10-08T07:42:40;18.10;99.90
64689;DHT22;62504;46.070;14.492;2023-10-08T07:45:06;18.00;99.90
64689;DHT22;62504;46.070;14.492;2023-10-08T07:47:32;18.10;99.90
64689;DHT22;62504;46.070;14.492;2023-10-08T07:49:58;18.10;99.90
64689;DHT22;62504;46.070;14.492;2023-10-08T07:52:24;18.00;99.90
64689;DHT22;62504;46.070;14.492;2023-10-08T07:54:50;18.10;99.90
64689;DHT22;62504;46.070;14.492;2023-10-08T07:57:16;18.20;99.90
64689;DHT22;62504;46.070;14.492;2023-10-08T07:59:51;18.40;99.90
64689;DHT22;62504;46.070;14.492;2023-10-08T08:02:20;18.70;99.90
64689;DHT22;62504;46.070;14.492;2023-10-08T08:04:53;18.70;99.90
64689;DHT22;62504;46.070;14.492;2023-10-08T08:07:21;19.00;99.90
64689;DHT22;62504;46.070;14.492;2023-10-08T08:09:52;19.20;99.90
64689;DHT22;62504;46.070;14.492;2023-10-08T08:12:24;19.30;99.90
64689;DHT22;62504;46.070;14.492;2023-10-08T08:14:54;19.50;99.90
64689;DHT22;62504;46.070;14.492;2023-10-08T08:17:23;19.60;99.90
64689;DHT22;62504;46.070;14.492;2023-10-08T08:19:51;19.70;99.90
64689;DHT22;62504;46.070;14.492;2023-10-08T08:22:18;19.60;99.90
64689;DHT22;62504;46.070;14.492;2023-10-08T08:24:50;19.50;99.90
64689;DHT22;62504;46.070;14.492;2023-10-08T08:27:39;19.50;99.90
64689;DHT22;62504;46.070;14.492;2023-10-08T08:30:07;19.60;99.90
64689;DHT22;62504;46.070;14.492;2023-10-08T08:32:38;19.60;99.90
64689;DHT22;62504;46.070;14.492;2023-10-08T08:35:08;19.80;99.90
64689;DHT22;62504;46.070;14.492;2023-10-08T08:37:35;19.80;99.90
64689;DHT22;62504;46.070;14.492;2023-10-08T08:40:07;19.80;99.90
64689;DHT22;62504;46.070;14.492;2023-10-08T08:42:48;19.70;99.90
64689;DHT22;62504;46.070;14.492;2023-10-08T08:45:21;19.90;99.90
64689;DHT22;62504;46.070;14.492;2023-10-08T08:47:47;20.20;99.90
64689;DHT22;62504;46.070;14.492;2023-10-08T08:50:13;20.30;99.90
64689;DHT22;62504;46.070;14.492;2023-10-08T08:52:40;20.30;99.90
64689;DHT22;62504;46.070;14.492;2023-10-08T08:55:06;20.50;99.90
64689;DHT22;62504;46.070;14.492;2023-10-08T08:57:43;20.40;99.90
64689;DHT22;62504;46.070;14.492;2023-10-08T09:00:11;20.90;99.90
64689;DHT22;62504;46.070;14.492;2023-10-08T09:02:45;21.10;99.90
64689;DHT22;62504;46.070;14.492;2023-10-08T09:05:13;21.40;99.90
64689;DHT22;62504;46.070;14.492;2023-10-08T09:10:28;21.20;99.90
64689;DHT22;62504;46.070;14.492;2023-10-08T09:12:56;21.00;99.90
64689;DHT22;62504;46.070;14.492;2023-10-08T09:15:28;20.80;99.90
64689;DHT22;62504;46.070;14.492;2023-10-08T09:17:54;20.70;99.90
64689;DHT22;62504;46.070;14.492;2023-10-08T09:20:21;20.70;99.90
64689;DHT22;62504;46.070;14.492;2023-10-08T09:23:13;21.00;99.90
64689;DHT22;62504;46.070;14.492;2023-10-08T09:25:41;21.00;99.90
64689;DHT22;62504;46.070;14.492;2023-10-08T09:28:08;21.10;99.90
64689;DHT22;62504;46.070;14.492;2023-10-08T09:30:36;21.30;99.90
64689;DHT22;62504;46.070;14.492;2023-10-08T09:33:12;21.30;99.90
64689;DHT22;62504;46.070;14.492;2023-10-08T09:35:38;21.40;99.90
64689;DHT22;62504;46.070;14.492;2023-10-08T09:38:07;21.60;99.90
64689;DHT22;62504;46.070;14.492;2023-10-08T09:40:38;21.50;99.90
64689;DHT22;62504;46.070;14.492;2023-10-08T09:43:04;21.50;99.90
64689;DHT22;62504;46.070;14.492;2023-10-08T09:45:34;21.40;99.90
64689;DHT22;62504;46.070;14.492;2023-10-08T09:48:01;21.30;99.90
64689;DHT22;62504;46.070;14.492;2023-10-08T09:50:38;21.10;99.90
64689;DHT22;62504;46.070;14.492;2023-10-08T09:53:12;21.00;99.90
64689;DHT22;62504;46.070;14.492;2023-10-08T09:55:56;20.80;99.90
64689;DHT22;62504;46.070;14.492;2023-10-08T09:58:26;20.70;99.90
64689;DHT22;62504;46.070;14.492;2023-10-08T10:00:56;20.70;99.90
64689;DHT22;62504;46.070;14.492;2023-10-08T10:03:24;20.70;99.90
64689;DHT22;62504;46.070;14.492;2023-10-08T10:05:51;20.70;99.90
64689;DHT22;62504;46.070;14.492;2023-10-08T10:08:17;20.70;99.90
64689;DHT22;62504;46.070;14.492;2023-10-08T10:10:43;20.80;99.90
64689;DHT22;62504;46.070;14.492;2023-10-08T10:13:14;20.80;99.90
64689;DHT22;62504;46.070;14.492;2023-10-08T10:15:42;20.80;99.90
64689;DHT22;62504;46.070;14.492;2023-10-08T10:18:29;20.90;99.90
64689;DHT22;62504;46.070;14.492;2023-10-08T10:23:46;21.00;99.90
64689;DHT22;62504;46.070;14.492;2023-10-08T10:26:33;21.20;99.90
64689;DHT22;62504;46.070;14.492;2023-10-08T10:31:44;21.10;99.90
64689;DHT22;62504;46.070;14.492;2023-10-08T10:34:17;21.10;99.90
64689;DHT22;62504;46.070;14.492;2023-10-08T10:36:45;21.00;99.90
64689;DHT22;62504;46.070;14.492;2023-10-08T10:39:17;21.10;99.90
64689;DHT22;62504;46.070;14.492;2023-10-08T10:44:10;21.30;99.90
64689;DHT22;62504;46.070;14.492;2023-10-08T10:46:36;21.30;99.90
64689;DHT22;62504;46.070;14.492;2023-10-08T10:49:07;21.50;99.90
64689;DHT22;62504;46.070;14.492;2023-10-08T10:51:55;21.60;99.90
64689;DHT22;62504;46.070;14.492;2023-10-08T10:54:26;21.60;99.90
64689;DHT22;62504;46.070;14.492;2023-10-08T10:56:53;21.80;99.90
64689;DHT22;62504;46.070;14.492;2023-10-08T10:59:33;21.90;99.90
64689;DHT22;62504;46.070;14.492;2023-10-08T11:02:03;22.00;99.90
64689;DHT22;62504;46.070;14.492;2023-10-08T11:04:32;22.00;99.90
64689;DHT22;62504;46.070;14.492;2023-10-08T11:06:59;22.10;99.90
64689;DHT22;62504;46.070;14.492;2023-10-08T11:09:26;22.10;99.90
64689;DHT22;62504;46.070;14.492;2023-10-08T11:12:03;22.30;99.90
64689;DHT22;62504;46.070;14.492;2023-10-08T11:14:40;22.40;99.90
64689;DHT22;62504;46.070;14.492;2023-10-08T11:17:23;22.40;99.90
64689;DHT22;62504;46.070;14.492;2023-10-08T11:19:50;22.50;99.90
64689;DHT22;62504;46.070;14.492;2023-10-08T11:22:16;22.50;99.90
64689;DHT22;62504;46.070;14.492;2023-10-08T11:24:43;22.40;99.90
64689;DHT22;62504;46.070;14.492;2023-10-08T11:27:13;22.40;99.90
64689;DHT22;62504;46.070;14.492;2023-10-08T11:29:43;22.40;99.90
64689;DHT22;62504;46.070;14.492;2023-10-08T11:32:10;22.40;99.90
64689;DHT22;62504;46.070;14.492;2023-10-08T11:34:38;22.50;99.90
64689;DHT22;62504;46.070;14.492;2023-10-08T11:37:05;22.50;99.90
64689;DHT22;62504;46.070;14.492;2023-10-08T11:39:43;22.50;99.90
64689;DHT22;62504;46.070;14.492;2023-10-08T11:42:11;22.50;99.90
64689;DHT22;62504;46.070;14.492;2023-10-08T11:44:55;22.50;99.90
64689;DHT22;62504;46.070;14.492;2023-10-08T11:47:21;22.60;99.90
64689;DHT22;62504;46.070;14.492;2023-10-08T11:49:48;22.60;99.90
64689;DHT22;62504;46.070;14.492;2023-10-08T11:52:16;22.60;99.90
64689;DHT22;62504;46.070;14.492;2023-10-08T11:54:44;22.60;99.90
64689;DHT22;62504;46.070;14.492;2023-10-08T11:57:11;22.60;99.90
64689;DHT22;62504;46.070;14.492;2023-10-08T11:59:37;22.60;99.90
64689;DHT22;62504;46.070;14.492;2023-10-08T12:02:06;22.60;99.90
64689;DHT22;62504;46.070;14.492;2023-10-08T12:04:32;22.60;99.90
64689;DHT22;62504;46.070;14.492;2023-10-08T12:06:58;22.60;99.90
64689;DHT22;62504;46.070;14.492;2023-10-08T12:09:28;22.60;99.90
64689;DHT22;62504;46.070;14.492;2023-10-08T12:11:54;22.60;99.90
64689;DHT22;62504;46.070;14.492;2023-10-08T12:14:21;22.60;99.90
64689;DHT22;62504;46.070;14.492;2023-10-08T12:16:52;22.80;99.90
64689;DHT22;62504;46.070;14.492;2023-10-08T12:19:17;22.80;99.90
64689;DHT22;62504;46.070;14.492;2023-10-08T12:21:45;22.70;99.90
64689;DHT22;62504;46.070;14.492;2023-10-08T12:24:12;22.70;99.90
64689;DHT22;62504;46.070;14.492;2023-10-08T12:26:39;22.70;99.90
64689;DHT22;62504;46.070;14.492;2023-10-08T12:29:12;22.70;99.90
64689;DHT22;62504;46.070;14.492;2023-10-08T12:31:40;22.70;99.90
64689;DHT22;62504;46.070;14.492;2023-10-08T12:34:06;22.70;99.90
64689;DHT22;62504;46.070;14.492;2023-10-08T12:36:32;22.70;99.90
64689;DHT22;62504;46.070;14.492;2023-10-08T12:39:01;22.80;99.90
64689;DHT22;62504;46.070;14.492;2023-10-08T12:41:34;22.90;99.90
64689;DHT22;62504;46.070;14.492;2023-10-08T12:44:04;23.00;99.90
64689;DHT22;62504;46.070;14.492;2023-10-08T12:46:33;23.00;99.90
64689;DHT22;62504;46.070;14.492;2023-10-08T12:48:59;23.10;99.90
64689;DHT22;62504;46.070;14.492;2023-10-08T12:51:27;23.00;99.90
64689;DHT22;62504;46.070;14.492;2023-10-08T12:53:58;23.00;99.90
64689;DHT22;62504;46.070;14.492;2023-10-08T12:56:34;23.10;99.90
64689;DHT22;62504;46.070;14.492;2023-10-08T12:59:20;23.10;99.90
64689;DHT22;62504;46.070;14.492;2023-10-08T13:01:46;23.10;99.90
64689;DHT22;62504;46.070;14.492;2023-10-08T13:04:17;23.10;99.90
64689;DHT22;62504;46.070;14.492;2023-10-08T13:06:50;23.10;99.90
64689;DHT22;62504;46.070;14.492;2023-10-08T13:09:16;23.10;99.90
64689;DHT22;62504;46.070;14.492;2023-10-08T13:11:42;23.00;99.90
64689;DHT22;62504;46.070;14.492;2023-10-08T13:14:08;23.00;99.90
64689;DHT22;62504;46.070;14.492;2023-10-08T13:16:34;22.90;99.90
64689;DHT22;62504;46.070;14.492;2023-10-08T13:19:03;22.90;99.90
64689;DHT22;62504;46.070;14.492;2023-10-08T13:21:29;22.90;99.90
64689;DHT22;62504;46.070;14.492;2023-10-08T13:23:57;22.90;99.90
64689;DHT22;62504;46.070;14.492;2023-10-08T13:26:27;22.80;99.90
64689;DHT22;62504;46.070;14.492;2023-10-08T13:28:57;22.80;99.90
64689;DHT22;62504;46.070;14.492;2023-10-08T13:31:24;22.80;99.90
64689;DHT22;62504;46.070;14.492;2023-10-08T13:33:50;22.80;99.90
64689;DHT22;62504;46.070;14.492;2023-10-08T13:36:18;22.80;99.90
64689;DHT22;62504;46.070;14.492;2023-10-08T13:38:44;22.70;99.90
64689;DHT22;62504;46.070;14.492;2023-10-08T13:41:12;22.80;99.90
64689;DHT22;62504;46.070;14.492;2023-10-08T13:43:48;22.70;99.90
64689;DHT22;62504;46.070;14.492;2023-10-08T13:46:18;22.70;99.90
64689;DHT22;62504;46.070;14.492;2023-10-08T13:48:46;22.70;99.90
64689;DHT22;62504;46.070;14.492;2023-10-08T13:51:16;22.70;99.90
64689;DHT22;62504;46.070;14.492;2023-10-08T13:53:53;22.70;99.90
64689;DHT22;62504;46.070;14.492;2023-10-08T13:56:25;22.80;99.90
64689;DHT22;62504;46.070;14.492;2023-10-08T13:58:55;22.80;99.90
64689;DHT22;62504;46.070;14.492;2023-10-08T14:01:33;22.80;99.90
64689;DHT22;62504;46.070;14.492;2023-10-08T14:04:04;22.80;99.90
64689;DHT22;62504;46.070;14.492;2023-10-08T14:06:36;22.80;99.90
64689;DHT22;62504;46.070;14.492;2023-10-08T14:09:03;22.80;99.90
64689;DHT22;62504;46.070;14.492;2023-10-08T14:11:38;22.90;99.90
64689;DHT22;62504;46.070;14.492;2023-10-08T14:14:04;22.90;99.90
64689;DHT22;62504;46.070;14.492;2023-10-08T14:16:39;22.90;99.90
64689;DHT22;62504;46.070;14.492;2023-10-08T14:19:11;22.90;99.90
64689;DHT22;62504;46.070;14.492;2023-10-08T14:21:42;22.90;99.90
64689;DHT22;62504;46.070;14.492;2023-10-08T14:24:34;22.90;99.90
64689;DHT22;62504;46.070;14.492;2023-10-08T14:27:04;22.90;99.90
64689;DHT22;62504;46.070;14.492;2023-10-08T14:29:39;22.90;99.90
64689;DHT22;62504;46.070;14.492;2023-10-08T14:32:12;22.90;99.90
64689;DHT22;62504;46.070;14.492;2023-10-08T14:34:38;23.00;99.90
64689;DHT22;62504;46.070;14.492;2023-10-08T14:37:13;23.00;99.90
64689;DHT22;62504;46.070;14.492;2023-10-08T14:39:57;22.90;99.90
64689;DHT22;62504;46.070;14.492;2023-10-08T14:42:41;22.90;99.90
64689;DHT22;62504;46.070;14.492;2023-10-08T14:45:24;23.00;99.90
64689;DHT22;62504;46.070;14.492;2023-10-08T14:47:56;23.10;99.90
64689;DHT22;62504;46.070;14.492;2023-10-08T14:50:23;23.00;99.90
64689;DHT22;62504;46.070;14.492;2023-10-08T14:52:55;22.90;99.90
64689;DHT22;62504;46.070;14.492;2023-10-08T14:55:22;22.90;99.90
64689;DHT22;62504;46.070;14.492;2023-10-08T14:57:52;22.80;99.90
64689;DHT22;62504;46.070;14.492;2023-10-08T15:00:19;22.80;99.90
64689;DHT22;62504;46.070;14.492;2023-10-08T15:02:56;22.80;99.90
64689;DHT22;62504;46.070;14.492;2023-10-08T15:05:23;22.70;99.90
64689;DHT22;62504;46.070;14.492;2023-10-08T15:07:50;22.70;99.90
64689;DHT22;62504;46.070;14.492;2023-10-08T15:10:16;22.70;99.90
64689;DHT22;62504;46.070;14.492;2023-10-08T15:12:43;22.70;99.90
64689;DHT22;62504;46.070;14.492;2023-10-08T15:15:09;22.70;99.90
64689;DHT22;62504;46.070;14.492;2023-10-08T15:17:42;22.60;99.90
64689;DHT22;62504;46.070;14.492;2023-10-08T15:20:09;22.60;99.90
64689;DHT22;62504;46.070;14.492;2023-10-08T15:22:40;22.60;99.90
64689;DHT22;62504;46.070;14.492;2023-10-08T15:25:09;22.60;99.90
64689;DHT22;62504;46.070;14.492;2023-10-08T15:27:37;22.60;99.90
64689;DHT22;62504;46.070;14.492;2023-10-08T15:30:10;22.50;99.90
64689;DHT22;62504;46.070;14.492;2023-10-08T15:32:42;22.50;99.90
64689;DHT22;62504;46.070;14.492;2023-10-08T15:35:10;22.40;99.90
64689;DHT22;62504;46.070;14.492;2023-10-08T15:37:39;22.40;99.90
64689;DHT22;62504;46.070;14.492;2023-10-08T15:40:06;22.40;99.90
64689;DHT22;62504;46.070;14.492;2023-10-08T15:42:35;22.30;99.90
64689;DHT22;62504;46.070;14.492;2023-10-08T15:45:02;22.30;99.90
64689;DHT22;62504;46.070;14.492;2023-10-08T15:47:29;22.30;99.90
64689;DHT22;62504;46.070;14.492;2023-10-08T15:49:56;22.30;99.90
64689;DHT22;62504;46.070;14.492;2023-10-08T15:52:24;22.40;99.90
64689;DHT22;62504;46.070;14.492;2023-10-08T15:54:50;22.30;99.90